Observations for GUIDONIA IT-AFB, Italy (LIRG)

LIRG 141055Z 20003KT 160V230 9999 SCT025 15/10 Q1008
LIRG 141055Z 20003KT 160V230 9999 SCT025 15/10 Q1008 RMK OVC BKN060 MON NE CLD CIME NC VIS MIN 9999 BLU
LIRG 140955Z VRB02KT 9999 FEW030 13/10 Q1008
LIRG 140955Z VRB02KT 9999 FEW030 13/10 Q1008 RMK BKN BKN070 MON NE CLD CIME NC VIS MIN 9999 BLU
LIRG 140855Z 24002KT 9999 FEW040 12/11 Q1008
LIRG 140855Z 24002KT 9999 FEW040 12/11 Q1008 RMK BKN BKN080 MON NE CLD CIME NC VIS MIN 9999 BLU
LIRG 140755Z 29001KT 9999 BKN040 11/11 Q1008
LIRG 140755Z 29001KT 9999 BKN040 11/11 Q1008 RMK BKN MON NE CLD CIME VIS MIN 9999 BLU
LIRG 140655Z 29005KT 9999 SCT020 BKN040 11/10 Q1007 
LIRG 140655Z 29005KT 9999 SCT020 BKN040 11/10 Q1007 RMK OVC MON NE GEN INC NC VIS MIN 9999 BLU
LIRG 140555Z 28003KT 220V290 9999 -RA SCT020 BKN040 10/10 Q1007 
LIRG 140555Z 28003KT 220V290 9999 -RA SCT020 BKN040 10/10 Q1007 RMK OVC MON NE GEN INC VAL VIS MIN 9999 BLU
LIRG 131755Z 13008KT 9999 FEW030 11/07 Q1006
LIRG 131755Z 13008KT 9999 FEW030 11/07 Q1006 RMK SCT SCT070 MON NE CLD CIME NC VIS MIN 9999 BLU
LIRG 131655Z 14007KT 9999 FEW030 11/07 Q1005
LIRG 131655Z 14007KT 9999 FEW030 11/07 Q1005 RMK SCT SCT070 MON NE CLD CIME NC VIS MIN 9999 BLU
LIRG 131555Z 16008KT 9999 FEW030 13/07 Q1003
LIRG 131555Z 16008KT 9999 FEW030 13/07 Q1003 RMK SCT MON NE CLD CIME NC VIS MIN9999 BLU
LIRG 131455Z 21011KT 9999 SCT030 15/08 Q1002
LIRG 131455Z 21011KT 9999 SCT030 15/08 Q1002 RMK SCT MON NE CLD CIME ELEV SLW VIS MIN 9999 BLU
LIRG 131355Z 07003KT 9999 FEW020TCU SCT025 14/12 Q1002 RERA 
LIRG 131355Z 07003KT 9999 FEW020TCU SCT025 14/12 Q1002 RERA RMK BKN MON NE CIMEINC NC VIS MIN 9999 BLU
LIRG 131255Z 08003KT 9999 -SHRA FEW020 SCT025TCU 16/11 Q1001
LIRG 131255Z 08003KT 9999 -SHRA FEW020 SCT025TCU 16/11 Q1001 RMK BKN MON NE CIME INC NC VIS MIN 9999 BLU
LIRG 131155Z 09004KT 9999 FEW025 15/11 Q1001
LIRG 131155Z 09004KT 9999 FEW025 15/11 Q1001 RMK SCT MON NE CIME INC VAR RAPID VIS MIN 9999 BLU